createdAt,value
2022-10-06T00:00:19.075Z,992.60
2022-10-06T00:01:19.130Z,992.54
2022-10-06T00:02:19.155Z,992.51
2022-10-06T00:03:19.061Z,992.51
2022-10-06T00:04:19.070Z,992.52
2022-10-06T00:05:19.030Z,992.54
2022-10-06T00:06:19.018Z,992.55
2022-10-06T00:07:19.045Z,992.56
2022-10-06T00:08:19.001Z,992.58
2022-10-06T00:09:18.994Z,992.52
2022-10-06T00:10:19.000Z,992.51
2022-10-06T00:11:19.005Z,992.51
2022-10-06T00:12:18.991Z,992.56
2022-10-06T00:13:18.988Z,992.58
2022-10-06T00:14:18.953Z,992.59
2022-10-06T00:15:18.970Z,992.59
2022-10-06T00:16:19.010Z,992.57
2022-10-06T00:17:18.934Z,992.56
2022-10-06T00:18:18.922Z,992.54
2022-10-06T00:19:18.926Z,992.54
2022-10-06T00:20:18.919Z,992.57
2022-10-06T00:21:18.896Z,992.63
2022-10-06T00:22:18.880Z,992.65
2022-10-06T00:23:18.879Z,992.64
2022-10-06T00:24:18.957Z,992.66
2022-10-06T00:25:18.869Z,992.68
2022-10-06T00:26:18.848Z,992.70
2022-10-06T00:27:18.849Z,992.74
2022-10-06T00:28:18.935Z,992.78
2022-10-06T00:29:18.907Z,992.78
2022-10-06T00:30:18.821Z,992.80
2022-10-06T00:31:18.863Z,992.80
2022-10-06T00:32:18.798Z,992.79
2022-10-06T00:33:18.794Z,992.80
2022-10-06T00:34:18.801Z,992.80
2022-10-06T00:35:18.943Z,992.78
2022-10-06T00:36:18.763Z,992.77
2022-10-06T00:37:18.792Z,992.77
2022-10-06T00:38:18.756Z,992.74
2022-10-06T00:39:18.763Z,992.74
2022-10-06T00:40:18.738Z,992.75
2022-10-06T00:41:18.730Z,992.76
2022-10-06T00:42:18.712Z,992.77
2022-10-06T00:43:18.732Z,992.76
2022-10-06T00:44:18.705Z,992.79
2022-10-06T00:45:18.689Z,992.80
2022-10-06T00:46:18.742Z,992.83
2022-10-06T00:47:18.664Z,992.83
2022-10-06T00:48:18.678Z,992.83
2022-10-06T00:49:18.658Z,992.84
2022-10-06T00:50:18.674Z,992.88
2022-10-06T00:51:18.634Z,992.92
2022-10-06T00:52:18.642Z,992.90
2022-10-06T00:53:18.616Z,992.92
2022-10-06T00:54:18.604Z,992.91
2022-10-06T00:55:18.599Z,992.88
2022-10-06T00:56:18.585Z,992.88
2022-10-06T00:57:18.580Z,992.87
2022-10-06T00:58:18.587Z,992.88
2022-10-06T00:59:18.558Z,992.91
2022-10-06T01:00:18.561Z,992.91
2022-10-06T01:01:18.628Z,992.93
2022-10-06T01:02:18.566Z,992.94
2022-10-06T01:03:18.532Z,992.94
2022-10-06T01:04:18.510Z,992.94
2022-10-06T01:05:18.507Z,992.91
2022-10-06T01:06:18.524Z,992.88
2022-10-06T01:07:18.513Z,992.87
2022-10-06T01:08:18.490Z,992.86
2022-10-06T01:09:18.479Z,992.85
2022-10-06T01:10:18.472Z,992.88
2022-10-06T01:11:18.461Z,992.94
2022-10-06T01:12:18.487Z,993.02
2022-10-06T01:13:18.450Z,993.07
2022-10-06T01:14:18.432Z,993.09
2022-10-06T01:15:18.429Z,993.06
2022-10-06T01:16:18.450Z,993.06
2022-10-06T01:17:18.426Z,993.02
2022-10-06T01:18:18.385Z,993.06
2022-10-06T01:19:18.393Z,993.05
2022-10-06T01:20:18.372Z,993.03
2022-10-06T01:21:18.400Z,993.02
2022-10-06T01:22:18.378Z,993.04
2022-10-06T01:23:18.359Z,993.08
2022-10-06T01:24:18.358Z,993.07
2022-10-06T01:25:18.334Z,993.06
2022-10-06T01:26:18.345Z,993.05
2022-10-06T01:27:18.370Z,993.10
2022-10-06T01:28:18.421Z,993.13
2022-10-06T01:29:18.304Z,993.13
2022-10-06T01:30:18.290Z,993.17
2022-10-06T01:31:18.390Z,993.22
2022-10-06T01:32:18.273Z,993.23
2022-10-06T01:33:18.256Z,993.25
2022-10-06T01:34:18.288Z,993.29
2022-10-06T01:35:18.247Z,993.27
2022-10-06T01:36:18.239Z,993.27
2022-10-06T01:37:18.235Z,993.28
2022-10-06T01:38:18.215Z,993.30
2022-10-06T01:39:18.258Z,993.28
2022-10-06T01:40:18.227Z,993.29
2022-10-06T01:41:18.195Z,993.29
2022-10-06T01:42:18.178Z,993.30
2022-10-06T01:43:18.172Z,993.31
2022-10-06T01:44:18.163Z,993.34
2022-10-06T01:45:18.155Z,993.39
2022-10-06T01:46:18.252Z,993.39
2022-10-06T01:47:18.139Z,993.40
2022-10-06T01:48:18.193Z,993.41
2022-10-06T01:49:18.133Z,993.47
2022-10-06T01:50:18.129Z,993.46
2022-10-06T01:51:18.108Z,993.46
2022-10-06T01:52:18.179Z,993.48
2022-10-06T01:53:18.091Z,993.51
2022-10-06T01:54:18.102Z,993.57
2022-10-06T01:55:18.074Z,993.54
2022-10-06T01:56:18.068Z,993.61
2022-10-06T01:57:18.049Z,993.60
2022-10-06T01:58:18.048Z,993.61
2022-10-06T01:59:18.039Z,993.58
2022-10-06T02:00:18.049Z,993.63
2022-10-06T02:01:18.075Z,993.66
2022-10-06T02:02:18.015Z,993.66
2022-10-06T02:03:18.021Z,993.65
2022-10-06T02:04:18.175Z,993.79
2022-10-06T02:05:18.006Z,993.79
2022-10-06T02:06:18.060Z,993.83
2022-10-06T02:07:17.979Z,993.88
2022-10-06T02:08:17.966Z,993.89
2022-10-06T02:09:17.955Z,993.97
2022-10-06T02:10:17.972Z,993.91
2022-10-06T02:11:17.941Z,993.97
2022-10-06T02:12:17.941Z,993.96
2022-10-06T02:13:17.939Z,993.95
2022-10-06T02:14:17.906Z,993.98
2022-10-06T02:15:17.925Z,994.01
2022-10-06T02:16:18.005Z,994.00
2022-10-06T02:17:17.888Z,994.04
2022-10-06T02:18:17.940Z,994.04
2022-10-06T02:19:17.864Z,994.04
2022-10-06T02:20:17.876Z,994.08
2022-10-06T02:21:17.878Z,994.09
2022-10-06T02:22:17.854Z,994.14
2022-10-06T02:23:17.852Z,994.16
2022-10-06T02:24:17.824Z,994.21
2022-10-06T02:25:17.820Z,994.26
2022-10-06T02:26:17.820Z,994.27
2022-10-06T02:27:17.849Z,994.31
2022-10-06T02:28:17.866Z,994.32
2022-10-06T02:29:17.813Z,994.35
2022-10-06T02:30:17.806Z,994.36
2022-10-06T02:31:17.814Z,994.43
2022-10-06T02:32:17.754Z,994.42
2022-10-06T02:33:17.775Z,994.53
2022-10-06T02:34:17.750Z,994.45
2022-10-06T02:35:17.751Z,994.53
2022-10-06T02:36:17.747Z,994.58
2022-10-06T02:37:17.718Z,994.58
2022-10-06T02:38:17.723Z,994.68
2022-10-06T02:39:17.720Z,994.68
2022-10-06T02:40:17.686Z,994.65
2022-10-06T02:41:17.689Z,994.68
2022-10-06T02:42:17.680Z,994.67
2022-10-06T02:43:17.664Z,994.70
2022-10-06T02:44:17.699Z,994.75
2022-10-06T02:45:17.661Z,994.74
2022-10-06T02:46:17.711Z,994.70
2022-10-06T02:47:17.642Z,994.73
2022-10-06T02:48:17.632Z,994.76
2022-10-06T02:49:17.681Z,994.76
2022-10-06T02:50:17.619Z,994.77
2022-10-06T02:51:17.600Z,994.83
2022-10-06T02:52:17.644Z,994.88
2022-10-06T02:53:17.587Z,994.91
2022-10-06T02:54:17.564Z,994.92
2022-10-06T02:55:17.594Z,994.91
2022-10-06T02:56:17.592Z,994.94
2022-10-06T02:57:17.546Z,995.00
2022-10-06T02:58:17.543Z,994.98
2022-10-06T02:59:17.537Z,995.03
2022-10-06T03:00:17.523Z,995.05
2022-10-06T03:01:17.581Z,995.02
2022-10-06T03:02:17.696Z,995.05
2022-10-06T03:03:17.561Z,995.04
2022-10-06T03:04:17.493Z,995.01
2022-10-06T03:05:17.492Z,995.05
2022-10-06T03:06:17.461Z,995.09
2022-10-06T03:07:17.535Z,995.14
2022-10-06T03:08:17.470Z,995.21
2022-10-06T03:09:17.448Z,995.28
2022-10-06T03:10:17.536Z,995.28
2022-10-06T03:11:17.455Z,995.32
2022-10-06T03:12:17.433Z,995.36
2022-10-06T03:13:17.444Z,995.37
2022-10-06T03:14:21.634Z,995.40
2022-10-06T03:15:17.435Z,995.43
2022-10-06T03:16:17.487Z,995.44
2022-10-06T03:17:17.452Z,995.42
2022-10-06T03:18:17.366Z,995.40
2022-10-06T03:19:17.408Z,995.39
2022-10-06T03:20:17.338Z,995.42
2022-10-06T03:21:17.346Z,995.53
2022-10-06T03:22:24.827Z,995.63
2022-10-06T03:23:17.326Z,995.64
2022-10-06T03:24:17.338Z,995.67
2022-10-06T03:25:17.346Z,995.68
2022-10-06T03:26:17.299Z,995.70
2022-10-06T03:27:17.286Z,995.69
2022-10-06T03:28:17.339Z,995.72
2022-10-06T03:29:17.273Z,995.75
2022-10-06T03:30:17.263Z,995.72
2022-10-06T03:31:17.359Z,995.76
2022-10-06T03:32:17.260Z,995.78
2022-10-06T03:33:17.234Z,995.81
2022-10-06T03:34:17.218Z,995.82
2022-10-06T03:35:17.219Z,995.84
2022-10-06T03:36:17.253Z,995.82
2022-10-06T03:37:17.195Z,995.82
2022-10-06T03:38:17.725Z,995.83
2022-10-06T03:39:17.189Z,995.84
2022-10-06T03:40:17.174Z,995.89
2022-10-06T03:41:17.170Z,995.92
2022-10-06T03:42:17.206Z,995.93
2022-10-06T03:43:17.140Z,995.93
2022-10-06T03:44:17.136Z,995.95
2022-10-06T03:45:17.118Z,995.99
2022-10-06T03:46:17.145Z,996.00
2022-10-06T03:47:17.697Z,996.02
2022-10-06T03:48:17.130Z,995.99
2022-10-06T03:49:17.089Z,996.01
2022-10-06T03:50:17.119Z,995.99
2022-10-06T03:51:17.083Z,996.01
2022-10-06T03:52:17.076Z,996.04
2022-10-06T03:53:17.203Z,996.06
2022-10-06T03:54:17.073Z,996.11
2022-10-06T03:55:17.035Z,996.13
2022-10-06T03:56:17.035Z,996.16
2022-10-06T03:57:17.024Z,996.19
2022-10-06T03:58:17.011Z,996.21
2022-10-06T03:59:17.006Z,996.22
2022-10-06T04:00:17.013Z,996.22
2022-10-06T04:01:17.453Z,996.20
2022-10-06T04:02:17.012Z,996.26
2022-10-06T04:03:16.963Z,996.32
2022-10-06T04:04:16.969Z,996.36
2022-10-06T04:05:16.936Z,996.36
2022-10-06T04:06:16.945Z,996.37
2022-10-06T04:07:16.934Z,996.35
2022-10-06T04:08:16.921Z,996.39
2022-10-06T04:09:16.942Z,996.42
2022-10-06T04:10:16.907Z,996.45
2022-10-06T04:11:16.918Z,996.49
2022-10-06T04:12:16.887Z,996.50
2022-10-06T04:13:16.876Z,996.49
2022-10-06T04:14:16.857Z,996.45
2022-10-06T04:15:16.853Z,996.44
2022-10-06T04:16:16.923Z,996.45
2022-10-06T04:17:16.861Z,996.47
2022-10-06T04:18:16.836Z,996.47
2022-10-06T04:19:16.847Z,996.48
2022-10-06T04:20:16.821Z,996.49
2022-10-06T04:21:16.803Z,996.49
2022-10-06T04:22:16.830Z,996.52
2022-10-06T04:23:16.798Z,996.54
2022-10-06T04:24:16.784Z,996.54
2022-10-06T04:25:16.775Z,996.56
2022-10-06T04:26:16.773Z,996.60
2022-10-06T04:27:16.754Z,996.64
2022-10-06T04:28:16.816Z,996.71
2022-10-06T04:29:16.857Z,996.71
2022-10-06T04:30:16.733Z,996.70
2022-10-06T04:31:16.750Z,996.79
2022-10-06T04:32:16.706Z,996.83
2022-10-06T04:33:16.698Z,996.80
2022-10-06T04:34:16.738Z,996.77
2022-10-06T04:35:16.684Z,996.73
2022-10-06T04:36:16.678Z,996.72
2022-10-06T04:37:16.664Z,996.78
2022-10-06T04:38:16.665Z,996.81
2022-10-06T04:39:16.663Z,996.81
2022-10-06T04:40:16.670Z,996.84
2022-10-06T04:41:16.656Z,996.81
2022-10-06T04:42:16.635Z,996.82
2022-10-06T04:43:16.644Z,996.80
2022-10-06T04:44:16.608Z,996.83
2022-10-06T04:45:16.596Z,996.79
2022-10-06T04:46:41.501Z,996.81
2022-10-06T04:47:17.584Z,996.84
2022-10-06T04:48:16.585Z,996.88
2022-10-06T04:49:20.702Z,996.90
2022-10-06T04:50:16.570Z,996.92
2022-10-06T04:51:16.550Z,996.94
2022-10-06T04:52:16.570Z,996.97
2022-10-06T04:53:16.587Z,997.01
2022-10-06T04:54:16.529Z,997.01
2022-10-06T04:55:16.563Z,997.04
2022-10-06T04:56:16.517Z,997.04
2022-10-06T04:57:16.554Z,997.06
2022-10-06T04:58:16.504Z,997.11
2022-10-06T04:59:16.488Z,997.12
2022-10-06T05:00:16.490Z,997.15
2022-10-06T05:01:16.488Z,997.17
2022-10-06T05:02:16.526Z,997.21
2022-10-06T05:03:16.488Z,997.20
2022-10-06T05:04:16.457Z,997.21
2022-10-06T05:05:16.486Z,997.20
2022-10-06T05:06:16.787Z,997.24
2022-10-06T05:07:16.520Z,997.26
2022-10-06T05:08:16.421Z,997.31
2022-10-06T05:09:16.442Z,997.32
2022-10-06T05:10:16.392Z,997.33
2022-10-06T05:11:18.174Z,997.37
2022-10-06T05:12:16.420Z,997.40
2022-10-06T05:13:16.376Z,997.43
2022-10-06T05:14:16.362Z,997.46
2022-10-06T05:15:16.351Z,997.45
2022-10-06T05:16:16.415Z,997.44
2022-10-06T05:17:16.416Z,997.46
2022-10-06T05:18:16.534Z,997.46
2022-10-06T05:19:16.356Z,997.47
2022-10-06T05:20:16.330Z,997.49
2022-10-06T05:21:16.317Z,997.51
2022-10-06T05:22:16.300Z,997.54
2022-10-06T05:23:16.386Z,997.56
2022-10-06T05:24:16.290Z,997.58
2022-10-06T05:25:16.311Z,997.64
2022-10-06T05:26:16.289Z,997.67
2022-10-06T05:27:16.279Z,997.71
2022-10-06T05:28:16.284Z,997.74
2022-10-06T05:29:16.234Z,997.76
2022-10-06T05:30:16.278Z,997.76
2022-10-06T05:31:16.287Z,997.75
2022-10-06T05:32:16.220Z,997.75
2022-10-06T05:33:16.238Z,997.80
2022-10-06T05:34:16.200Z,997.86
2022-10-06T05:35:16.214Z,997.91
2022-10-06T05:36:16.192Z,997.94
2022-10-06T05:37:16.175Z,997.98
2022-10-06T05:38:16.183Z,997.98
2022-10-06T05:39:16.193Z,997.98
2022-10-06T05:40:16.161Z,997.99
2022-10-06T05:41:16.150Z,997.98
2022-10-06T05:42:16.174Z,998.00
2022-10-06T05:43:16.118Z,998.02
2022-10-06T05:44:16.120Z,998.05
2022-10-06T05:45:16.144Z,998.06
2022-10-06T05:46:16.172Z,998.06
2022-10-06T05:47:16.115Z,998.08
2022-10-06T05:48:16.103Z,998.10
2022-10-06T05:49:16.133Z,998.11
2022-10-06T05:50:16.067Z,998.12
2022-10-06T05:51:16.061Z,998.14
2022-10-06T05:52:16.056Z,998.14
2022-10-06T05:53:16.041Z,998.16
2022-10-06T05:54:16.045Z,998.18
2022-10-06T05:55:16.069Z,998.20
2022-10-06T05:56:16.037Z,998.21
2022-10-06T05:57:16.035Z,998.24
2022-10-06T05:58:18.480Z,998.27
2022-10-06T05:59:16.005Z,998.30
2022-10-06T06:00:15.993Z,998.33
2022-10-06T06:01:16.154Z,998.37
2022-10-06T06:02:16.130Z,998.40
2022-10-06T06:03:15.984Z,998.41
2022-10-06T06:04:15.963Z,998.41
2022-10-06T06:05:15.946Z,998.45
2022-10-06T06:06:15.950Z,998.46
2022-10-06T06:07:15.968Z,998.46
2022-10-06T06:08:15.921Z,998.49
2022-10-06T06:09:15.967Z,998.50
2022-10-06T06:10:15.923Z,998.51
2022-10-06T06:11:15.965Z,998.51
2022-10-06T06:12:15.896Z,998.49
2022-10-06T06:13:15.901Z,998.50
2022-10-06T06:14:15.899Z,998.53
2022-10-06T06:15:15.898Z,998.55
2022-10-06T06:16:15.920Z,998.58
2022-10-06T06:17:15.863Z,998.61
2022-10-06T06:18:15.880Z,998.61
2022-10-06T06:19:15.846Z,998.62
2022-10-06T06:20:15.837Z,998.64
2022-10-06T06:21:15.879Z,998.69
2022-10-06T06:22:15.815Z,998.73
2022-10-06T06:23:15.810Z,998.77
2022-10-06T06:24:15.845Z,998.80
2022-10-06T06:25:15.789Z,998.83
2022-10-06T06:26:15.793Z,998.84
2022-10-06T06:27:15.778Z,998.85
2022-10-06T06:28:15.848Z,998.85
2022-10-06T06:29:15.795Z,998.87
2022-10-06T06:30:15.767Z,998.91
2022-10-06T06:31:19.930Z,998.95
2022-10-06T06:32:15.752Z,998.95
2022-10-06T06:33:15.763Z,998.95
2022-10-06T06:34:15.753Z,998.94
2022-10-06T06:35:15.774Z,998.94
2022-10-06T06:36:15.719Z,998.95
2022-10-06T06:37:15.739Z,998.98
2022-10-06T06:38:15.703Z,999.02
2022-10-06T06:39:15.707Z,999.04
2022-10-06T06:40:15.744Z,999.03
2022-10-06T06:41:15.685Z,999.03
2022-10-06T06:42:15.665Z,999.03
2022-10-06T06:43:15.800Z,999.05
2022-10-06T06:44:15.658Z,999.05
2022-10-06T06:45:15.641Z,999.07
2022-10-06T06:46:15.878Z,999.12
2022-10-06T06:47:15.727Z,999.13
2022-10-06T06:48:15.611Z,999.16
2022-10-06T06:49:15.614Z,999.13
2022-10-06T06:50:16.042Z,999.13
2022-10-06T06:51:15.670Z,999.14
2022-10-06T06:52:15.607Z,999.17
2022-10-06T06:53:16.380Z,999.19
2022-10-06T06:54:15.572Z,999.20
2022-10-06T06:55:15.570Z,999.20
2022-10-06T06:56:15.546Z,999.19
2022-10-06T06:57:15.563Z,999.20
2022-10-06T06:58:15.541Z,999.21
2022-10-06T06:59:15.538Z,999.21
2022-10-06T07:00:15.517Z,999.22
2022-10-06T07:01:15.564Z,999.20
2022-10-06T07:02:15.625Z,999.19
2022-10-06T07:03:18.510Z,999.20
2022-10-06T07:04:16.481Z,999.22
2022-10-06T07:05:15.495Z,999.29
2022-10-06T07:06:15.459Z,999.36
2022-10-06T07:07:15.444Z,999.39
2022-10-06T07:08:15.464Z,999.42
2022-10-06T07:09:15.454Z,999.42
2022-10-06T07:10:15.436Z,999.43
2022-10-06T07:11:15.418Z,999.45
2022-10-06T07:12:15.410Z,999.47
2022-10-06T07:13:17.373Z,999.43
2022-10-06T07:14:15.432Z,999.43
2022-10-06T07:15:15.391Z,999.42
2022-10-06T07:16:15.451Z,999.41
2022-10-06T07:17:15.403Z,999.43
2022-10-06T07:18:15.355Z,999.44
2022-10-06T07:19:15.349Z,999.46
2022-10-06T07:20:15.430Z,999.46
2022-10-06T07:21:15.332Z,999.49
2022-10-06T07:22:15.334Z,999.50
2022-10-06T07:23:15.323Z,999.52
2022-10-06T07:24:15.326Z,999.53
2022-10-06T07:25:15.361Z,999.55
2022-10-06T07:26:15.293Z,999.55
2022-10-06T07:27:15.285Z,999.57
2022-10-06T07:28:15.343Z,999.56
2022-10-06T07:29:15.286Z,999.57
2022-10-06T07:30:15.300Z,999.56
2022-10-06T07:31:15.287Z,999.56
2022-10-06T07:32:15.248Z,999.56
2022-10-06T07:33:15.278Z,999.60
2022-10-06T07:34:15.220Z,999.63
2022-10-06T07:35:15.324Z,999.62
2022-10-06T07:36:15.244Z,999.63
2022-10-06T07:37:15.210Z,999.75
2022-10-06T07:38:15.181Z,999.69
2022-10-06T07:39:15.171Z,999.83
2022-10-06T07:40:15.173Z,999.72
2022-10-06T07:41:19.402Z,999.83
2022-10-06T07:42:16.200Z,999.80
2022-10-06T07:43:15.145Z,999.78
2022-10-06T07:44:15.152Z,999.84
2022-10-06T07:45:15.172Z,999.89
2022-10-06T07:46:15.212Z,999.92
2022-10-06T07:47:15.118Z,999.90
2022-10-06T07:48:15.156Z,999.90
2022-10-06T07:49:15.090Z,999.90
2022-10-06T07:50:15.094Z,999.93
2022-10-06T07:51:15.180Z,999.95
2022-10-06T07:52:15.072Z,999.90
2022-10-06T07:53:15.083Z,999.94
2022-10-06T07:54:15.087Z,999.95
2022-10-06T07:55:15.036Z,1000.01
2022-10-06T07:56:15.036Z,1000.06
2022-10-06T07:57:15.037Z,1000.14
2022-10-06T07:58:15.058Z,1000.25
2022-10-06T07:59:15.023Z,1000.12
2022-10-06T08:00:15.002Z,1000.10
2022-10-06T08:01:15.001Z,1000.14
2022-10-06T08:02:15.046Z,1000.21
2022-10-06T08:03:15.144Z,1000.25
2022-10-06T08:04:14.987Z,1000.28
2022-10-06T08:05:14.986Z,1000.29
2022-10-06T08:06:14.952Z,1000.31
2022-10-06T08:07:14.964Z,1000.33
2022-10-06T08:08:14.972Z,1000.32
2022-10-06T08:09:14.922Z,1000.31
2022-10-06T08:10:14.966Z,1000.30
2022-10-06T08:11:14.923Z,1000.27
2022-10-06T08:12:14.949Z,1000.32
2022-10-06T08:13:14.915Z,1000.40
2022-10-06T08:14:14.901Z,1000.44
2022-10-06T08:15:14.892Z,1000.43
2022-10-06T08:16:15.042Z,1000.48
2022-10-06T08:17:14.887Z,1000.55
2022-10-06T08:18:33.711Z,1000.49
2022-10-06T08:19:15.874Z,1000.51
2022-10-06T08:20:14.836Z,1000.53
2022-10-06T08:21:14.861Z,1000.55
2022-10-06T08:22:14.850Z,1000.60
2022-10-06T08:23:14.811Z,1000.59
2022-10-06T08:24:14.831Z,1000.63
2022-10-06T08:25:15.356Z,1000.67
2022-10-06T08:26:14.780Z,1000.70
2022-10-06T08:27:14.784Z,1000.79
2022-10-06T08:28:14.850Z,1000.73
2022-10-06T08:29:14.768Z,1000.75
2022-10-06T08:30:14.761Z,1000.76
2022-10-06T08:31:14.802Z,1000.75
2022-10-06T08:32:14.739Z,1000.85
2022-10-06T08:33:14.733Z,1000.74
2022-10-06T08:34:14.784Z,1000.79
2022-10-06T08:35:14.742Z,1000.82
2022-10-06T08:36:14.713Z,1000.81
2022-10-06T08:37:20.227Z,1000.86
2022-10-06T08:38:15.701Z,1000.80
2022-10-06T08:39:14.688Z,1000.81
2022-10-06T08:40:14.697Z,1000.75
2022-10-06T08:41:14.671Z,1000.70
2022-10-06T08:42:14.665Z,1000.82
2022-10-06T08:43:14.649Z,1000.71
2022-10-06T08:44:14.655Z,1000.80
2022-10-06T08:45:14.681Z,1000.92
2022-10-06T08:46:14.665Z,1000.84
2022-10-06T08:47:14.632Z,1000.79
2022-10-06T08:48:14.641Z,1000.84
2022-10-06T08:49:14.617Z,1000.93
2022-10-06T08:50:14.598Z,1000.89
2022-10-06T08:51:14.588Z,1000.77
2022-10-06T08:52:14.612Z,1000.83
2022-10-06T08:53:16.288Z,1000.84
2022-10-06T08:54:14.586Z,1000.83
2022-10-06T08:55:14.556Z,1000.78
2022-10-06T08:56:14.546Z,1000.80
2022-10-06T08:57:14.540Z,1000.86
2022-10-06T08:58:14.532Z,1000.91
2022-10-06T08:59:14.541Z,1000.84
2022-10-06T09:00:18.137Z,1000.81
2022-10-06T09:01:15.566Z,1000.76
2022-10-06T09:02:14.553Z,1000.74
2022-10-06T09:03:14.487Z,1000.86
2022-10-06T09:04:14.475Z,1000.89
2022-10-06T09:05:14.492Z,1000.90
2022-10-06T09:06:14.463Z,1000.87
2022-10-06T09:07:14.610Z,1000.86
2022-10-06T09:08:14.453Z,1000.90
2022-10-06T09:09:14.447Z,1000.80
2022-10-06T09:10:14.438Z,1000.87
2022-10-06T09:11:14.462Z,1000.98
2022-10-06T09:12:14.419Z,1000.98
2022-10-06T09:13:17.367Z,1001.03
2022-10-06T09:14:15.417Z,1000.93
2022-10-06T09:15:14.401Z,1000.94
2022-10-06T09:16:14.443Z,1000.95
2022-10-06T09:17:14.400Z,1001.04
2022-10-06T09:18:14.428Z,1001.09
2022-10-06T09:19:14.362Z,1001.14
2022-10-06T09:20:14.361Z,1001.18
2022-10-06T09:21:14.344Z,1001.22
2022-10-06T09:23:22.474Z,1001.27
2022-10-06T09:24:22.520Z,1001.30
2022-10-06T09:25:22.521Z,1001.34
2022-10-06T09:26:22.482Z,1001.34
2022-10-06T09:27:22.485Z,1001.39
2022-10-06T09:28:22.487Z,1001.34
2022-10-06T09:29:22.421Z,1001.30
2022-10-06T09:30:22.414Z,1001.26
2022-10-06T09:31:22.556Z,1001.24
2022-10-06T09:32:22.396Z,1001.22
2022-10-06T09:33:22.403Z,1001.20
2022-10-06T09:34:22.395Z,1001.16
2022-10-06T09:35:22.370Z,1001.11
2022-10-06T09:36:22.361Z,1001.09
2022-10-06T09:37:22.347Z,1001.04
2022-10-06T09:38:22.343Z,1001.07
2022-10-06T09:39:22.359Z,1001.10
2022-10-06T09:40:22.335Z,1001.08
2022-10-06T09:41:22.322Z,1001.07
2022-10-06T09:42:22.309Z,1001.07
2022-10-06T09:43:22.313Z,1001.11
2022-10-06T09:44:22.358Z,1001.09
2022-10-06T09:45:22.316Z,1001.05
2022-10-06T09:46:22.377Z,1001.06
2022-10-06T09:47:22.374Z,1001.02
2022-10-06T09:48:24.853Z,1001.04
2022-10-06T09:49:22.254Z,1001.09
2022-10-06T09:50:22.299Z,1001.11
2022-10-06T09:51:22.242Z,1001.13
2022-10-06T09:52:22.229Z,1001.14
2022-10-06T09:53:22.213Z,1001.11
2022-10-06T09:54:22.214Z,1001.09
2022-10-06T09:55:22.230Z,1001.25
2022-10-06T09:56:22.206Z,1001.31
2022-10-06T09:57:22.200Z,1001.36
2022-10-06T09:58:22.183Z,1001.27
2022-10-06T09:59:22.191Z,1001.32
2022-10-06T10:00:22.172Z,1001.32
2022-10-06T10:01:22.256Z,1001.39
2022-10-06T10:02:22.156Z,1001.39
2022-10-06T10:03:23.413Z,1001.34
2022-10-06T10:04:24.381Z,1001.32
2022-10-06T10:05:22.153Z,1001.30
2022-10-06T10:06:22.115Z,1001.34
2022-10-06T10:07:22.112Z,1001.29
2022-10-06T10:08:22.368Z,1001.32
2022-10-06T10:09:22.722Z,1001.33
2022-10-06T10:10:22.143Z,1001.30
2022-10-06T10:11:22.125Z,1001.31
2022-10-06T10:12:22.077Z,1001.29
2022-10-06T10:13:22.070Z,1001.27
2022-10-06T10:14:22.059Z,1001.31
2022-10-06T10:15:22.056Z,1001.31
2022-10-06T10:16:22.088Z,1001.35
2022-10-06T10:17:22.075Z,1001.45
2022-10-06T10:18:22.028Z,1001.43
2022-10-06T10:19:22.011Z,1001.39
2022-10-06T10:20:22.007Z,1001.37
2022-10-06T10:21:21.998Z,1001.32
2022-10-06T10:22:22.091Z,1001.29
2022-10-06T10:23:22.168Z,1001.25
2022-10-06T10:24:21.993Z,1001.30
2022-10-06T10:25:21.959Z,1001.25
2022-10-06T10:26:21.977Z,1001.27
2022-10-06T10:27:21.959Z,1001.24
2022-10-06T10:28:22.013Z,1001.16
2022-10-06T10:29:21.962Z,1001.25
2022-10-06T10:30:21.937Z,1001.30
2022-10-06T10:31:21.974Z,1001.41
2022-10-06T10:32:21.928Z,1001.42
2022-10-06T10:34:25.178Z,1001.46
2022-10-06T10:35:21.903Z,1001.46
2022-10-06T10:36:21.877Z,1001.48
2022-10-06T10:37:21.867Z,1001.52
2022-10-06T10:38:21.867Z,1001.48
2022-10-06T10:39:21.848Z,1001.47
2022-10-06T10:40:21.845Z,1001.51
2022-10-06T10:41:21.868Z,1001.45
2022-10-06T10:42:21.849Z,1001.50
2022-10-06T10:43:21.831Z,1001.48
2022-10-06T10:44:21.858Z,1001.48
2022-10-06T10:45:21.862Z,1001.43
2022-10-06T10:46:21.872Z,1001.39
2022-10-06T10:47:21.823Z,1001.45
2022-10-06T10:48:21.850Z,1001.46
2022-10-06T10:49:21.775Z,1001.50
2022-10-06T10:50:21.779Z,1001.55
2022-10-06T10:51:21.750Z,1001.57
2022-10-06T10:52:21.775Z,1001.51
2022-10-06T10:53:21.765Z,1001.49
2022-10-06T10:54:21.734Z,1001.48
2022-10-06T10:55:21.742Z,1001.45
2022-10-06T10:56:21.722Z,1001.36
2022-10-06T10:57:21.714Z,1001.41
2022-10-06T10:58:21.738Z,1001.44
2022-10-06T10:59:21.695Z,1001.41
2022-10-06T11:00:21.693Z,1001.41
2022-10-06T11:01:21.755Z,1001.38
2022-10-06T11:02:21.776Z,1001.37
2022-10-06T11:03:21.666Z,1001.33
2022-10-06T11:04:21.680Z,1001.31
2022-10-06T11:05:25.297Z,1001.26
2022-10-06T11:06:22.637Z,1001.31
2022-10-06T11:07:21.672Z,1001.31
2022-10-06T11:08:21.684Z,1001.30
2022-10-06T11:09:21.643Z,1001.31
2022-10-06T11:10:21.620Z,1001.29
2022-10-06T11:11:21.880Z,1001.27
2022-10-06T11:12:21.763Z,1001.30
2022-10-06T11:13:22.444Z,1001.30
2022-10-06T11:14:21.597Z,1001.26
2022-10-06T11:15:21.624Z,1001.29
2022-10-06T11:16:21.587Z,1001.30
2022-10-06T11:17:21.560Z,1001.29
2022-10-06T11:18:21.718Z,1001.29
2022-10-06T11:19:21.533Z,1001.31
2022-10-06T11:20:21.611Z,1001.32
2022-10-06T11:21:21.538Z,1001.31
2022-10-06T11:22:21.547Z,1001.30
2022-10-06T11:23:21.530Z,1001.29
2022-10-06T11:24:21.730Z,1001.31
2022-10-06T11:25:22.127Z,1001.27
2022-10-06T11:26:22.019Z,1001.33
2022-10-06T11:27:21.490Z,1001.34
2022-10-06T11:28:21.875Z,1001.38
2022-10-06T11:29:24.301Z,1001.38
2022-10-06T11:30:23.313Z,1001.38
2022-10-06T11:31:23.197Z,1001.38
2022-10-06T11:32:23.810Z,1001.41
2022-10-06T11:33:24.436Z,1001.34
2022-10-06T11:34:21.421Z,1001.37
2022-10-06T11:35:21.423Z,1001.35
2022-10-06T11:36:21.427Z,1001.33
2022-10-06T11:37:22.276Z,1001.33
2022-10-06T11:38:21.375Z,1001.30
2022-10-06T11:39:21.406Z,1001.30
2022-10-06T11:40:21.376Z,1001.30
2022-10-06T11:41:21.358Z,1001.31
2022-10-06T11:42:21.431Z,1001.27
2022-10-06T11:43:21.335Z,1001.28
2022-10-06T11:44:21.342Z,1001.30
2022-10-06T11:45:21.423Z,1001.28
2022-10-06T11:46:21.468Z,1001.26
2022-10-06T11:47:34.314Z,1001.26
2022-10-06T11:48:22.327Z,1001.23
2022-10-06T11:49:21.319Z,1001.30
2022-10-06T11:50:21.494Z,1001.29
2022-10-06T11:51:21.303Z,1001.33
2022-10-06T11:52:21.263Z,1001.32
2022-10-06T11:53:21.255Z,1001.26
2022-10-06T11:54:21.255Z,1001.30
2022-10-06T11:55:21.250Z,1001.31
2022-10-06T11:56:21.259Z,1001.31
2022-10-06T11:57:23.884Z,1001.31
2022-10-06T11:59:22.217Z,1001.28
2022-10-06T12:00:21.209Z,1001.30
2022-10-06T12:01:21.241Z,1001.29
2022-10-06T12:02:21.364Z,1001.28
2022-10-06T12:03:21.245Z,1001.28
2022-10-06T12:04:24.487Z,1001.25
2022-10-06T12:06:22.163Z,1001.25
2022-10-06T12:07:21.169Z,1001.25
2022-10-06T12:08:21.141Z,1001.24
2022-10-06T12:09:21.136Z,1001.21
2022-10-06T12:10:21.161Z,1001.21
2022-10-06T12:11:21.108Z,1001.22
2022-10-06T12:12:21.107Z,1001.21
2022-10-06T12:14:12.084Z,1001.16
2022-10-06T12:17:22.079Z,1001.19
2022-10-06T12:18:21.067Z,1001.18
2022-10-06T12:19:21.065Z,1001.20
2022-10-06T12:20:21.097Z,1001.18
2022-10-06T12:21:21.040Z,1001.16
2022-10-06T12:22:21.037Z,1001.14
2022-10-06T12:23:21.025Z,1001.15
2022-10-06T12:24:21.018Z,1001.14
2022-10-06T12:25:21.009Z,1001.15
2022-10-06T12:26:21.026Z,1001.14
2022-10-06T12:27:23.518Z,1001.20